Time;durP1;ratioP1;P1;durP2;ratioP2;P2;SDS_P1;SDS_P2;PMS_P1;PMS_P2;Temp;Humidity;BMP_temperature;BMP_pressure;BME280_temperature;BME280_humidity;BME280_pressure;Samples;Min_cycle;Max_cycle;Signal;HPM_P1;HPM_P2
2022/06/28 00:00:31;;;;;;;6.18;1.73;;;15.50;74.30;;;;;;5009423;28;20091;-75
2022/06/28 00:02:57;;;;;;;10.13;2.10;;;15.50;74.30;;;;;;5016780;28;20136;-75
2022/06/28 00:05:23;;;;;;;6.95;1.60;;;15.40;74.40;;;;;;5014801;28;20044;-76
2022/06/28 00:07:48;;;;;;;9.80;1.75;;;15.40;74.50;;;;;;5022654;28;20048;-76
2022/06/28 00:10:15;;;;;;;7.75;1.88;;;15.40;74.50;;;;;;5013308;28;20049;-76
2022/06/28 00:12:41;;;;;;;7.55;1.58;;;15.40;74.80;;;;;;5015648;28;20048;-75
2022/06/28 00:17:56;;;;;;;8.48;1.80;;;15.30;75.10;;;;;;5020145;28;20547;-75
2022/06/28 00:20:21;;;;;;;8.88;2.20;;;15.20;75.40;;;;;;5016758;28;20053;-75
2022/06/28 00:22:47;;;;;;;8.77;2.03;;;15.10;75.50;;;;;;5008600;28;20045;-75
2022/06/28 00:25:13;;;;;;;8.25;2.00;;;15.10;75.90;;;;;;5016898;28;20030;-75
2022/06/28 00:27:39;;;;;;;8.55;1.90;;;15.10;75.90;;;;;;5016907;28;20034;-75
2022/06/28 00:30:05;;;;;;;8.40;2.20;;;15.10;76.10;;;;;;5026578;28;20045;-76
2022/06/28 00:32:32;;;;;;;8.82;1.90;;;15.00;76.30;;;;;;5011770;28;20101;-75
2022/06/28 00:34:59;;;;;;;8.43;2.38;;;15.00;76.50;;;;;;5011814;28;20052;-75
2022/06/28 00:37:25;;;;;;;10.27;2.10;;;15.00;76.60;;;;;;5011255;28;20601;-75
2022/06/28 00:39:50;;;;;;;4.35;1.50;;;14.90;76.70;;;;;;5010635;28;20042;-75
2022/06/28 00:42:17;;;;;;;7.28;2.10;;;14.90;76.80;;;;;;5022493;28;20036;-76
2022/06/28 00:44:43;;;;;;;8.30;2.00;;;14.90;76.90;;;;;;5014748;28;20042;-76
2022/06/28 00:47:09;;;;;;;11.30;2.50;;;14.80;77.10;;;;;;5017958;28;20043;-76
2022/06/28 00:49:41;;;;;;;10.18;2.42;;;14.80;77.00;;;;;;5017021;28;20042;-75
2022/06/28 00:52:08;;;;;;;8.55;2.33;;;14.80;77.20;;;;;;5013024;28;20052;-75
2022/06/28 00:54:34;;;;;;;8.00;2.38;;;14.80;77.40;;;;;;5017839;28;20076;-75
2022/06/28 00:57:00;;;;;;;7.43;2.55;;;14.70;77.50;;;;;;5019641;28;20128;-76
2022/06/28 00:59:26;;;;;;;10.95;2.45;;;14.60;77.70;;;;;;5015669;28;20569;-75
2022/06/28 01:01:52;;;;;;;12.35;2.97;;;14.60;77.90;;;;;;5013294;28;20033;-76
2022/06/28 01:04:17;;;;;;;9.00;2.63;;;14.60;78.00;;;;;;5012850;28;20522;-75
2022/06/28 01:06:43;;;;;;;9.65;3.50;;;14.60;78.00;;;;;;5025711;28;20124;-76
2022/06/28 01:09:09;;;;;;;6.13;2.03;;;14.60;78.10;;;;;;5017540;28;20128;-75
2022/06/28 01:11:35;;;;;;;10.38;2.75;;;14.60;78.30;;;;;;5021182;28;20489;-75
2022/06/28 01:14:08;;;;;;;9.32;2.63;;;14.50;78.60;;;;;;5013195;28;20039;-76
2022/06/28 01:16:36;;;;;;;7.13;2.73;;;14.50;78.70;;;;;;5009434;28;20038;-76
2022/06/28 01:19:04;;;;;;;8.70;2.78;;;14.50;78.90;;;;;;5007237;28;20063;-75
2022/06/28 01:21:32;;;;;;;10.82;2.58;;;14.40;79.20;;;;;;5013498;28;20805;-76
2022/06/28 01:23:58;;;;;;;10.55;2.85;;;14.40;79.20;;;;;;5014188;28;20037;-76
2022/06/28 01:26:25;;;;;;;9.85;2.42;;;14.40;79.30;;;;;;5012184;28;20556;-76
2022/06/28 01:28:51;;;;;;;8.40;2.38;;;14.40;79.40;;;;;;5019924;28;20548;-75
2022/06/28 01:31:18;;;;;;;11.25;2.67;;;14.30;79.40;;;;;;5008408;28;20128;-75
2022/06/28 01:33:44;;;;;;;9.48;2.22;;;14.30;79.70;;;;;;5013305;28;20037;-76
2022/06/28 01:36:10;;;;;;;6.53;2.30;;;14.20;79.90;;;;;;5008812;28;20033;-77
2022/06/28 01:38:38;;;;;;;8.50;2.28;;;14.20;80.00;;;;;;5012678;28;20049;-76
2022/06/28 01:41:05;;;;;;;7.15;2.10;;;14.20;80.10;;;;;;5011069;28;20140;-75
2022/06/28 01:43:34;;;;;;;9.70;2.35;;;14.10;80.40;;;;;;5014811;28;20065;-76
2022/06/28 01:46:03;;;;;;;6.38;2.58;;;14.10;80.30;;;;;;5011218;28;20040;-76
2022/06/28 01:48:31;;;;;;;6.20;1.80;;;14.00;80.40;;;;;;5014907;28;20048;-75
2022/06/28 01:50:56;;;;;;;9.60;2.70;;;14.00;80.60;;;;;;5012250;28;20599;-75
2022/06/28 01:53:22;;;;;;;6.85;2.33;;;14.00;80.80;;;;;;5012045;28;20077;-76
2022/06/28 01:55:48;;;;;;;6.85;2.17;;;13.90;80.90;;;;;;5014081;28;20049;-75
2022/06/28 01:58:14;;;;;;;4.25;1.83;;;13.90;80.90;;;;;;5012381;28;20071;-76
2022/06/28 02:00:40;;;;;;;9.15;2.55;;;13.80;80.80;;;;;;5008023;28;20033;-76
2022/06/28 02:03:06;;;;;;;7.13;2.17;;;13.80;81.00;;;;;;5009793;28;20072;-76
2022/06/28 02:05:32;;;;;;;6.28;2.58;;;13.80;81.10;;;;;;5015725;28;20045;-76
2022/06/28 02:07:58;;;;;;;9.85;2.50;;;13.70;81.10;;;;;;5015627;28;20571;-75
2022/06/28 02:10:24;;;;;;;8.27;2.63;;;13.70;81.30;;;;;;5015972;28;20041;-75
2022/06/28 02:12:50;;;;;;;7.90;2.22;;;13.70;81.50;;;;;;5019732;28;20086;-75
2022/06/28 02:15:16;;;;;;;7.15;2.30;;;13.80;81.50;;;;;;5016168;28;20505;-75
2022/06/28 02:17:43;;;;;;;13.43;3.10;;;13.70;81.70;;;;;;5017071;28;20069;-75
2022/06/28 02:20:09;;;;;;;9.63;2.55;;;13.70;81.80;;;;;;5014184;28;20053;-75
2022/06/28 02:22:35;;;;;;;7.25;2.65;;;13.70;81.90;;;;;;5013252;28;20083;-75
2022/06/28 02:25:01;;;;;;;8.80;2.53;;;13.70;82.00;;;;;;5015439;28;20041;-76
2022/06/28 02:27:26;;;;;;;6.22;2.47;;;13.70;82.20;;;;;;5014948;28;20079;-75
2022/06/28 02:29:52;;;;;;;9.05;2.95;;;13.60;82.20;;;;;;5009183;28;20049;-75
2022/06/28 02:32:18;;;;;;;6.72;2.50;;;13.60;82.30;;;;;;5014624;28;20034;-75
2022/06/28 02:40:22;;;;;;;10.75;3.20;;;13.60;82.70;;;;;;5022298;28;20291;-76
2022/06/28 02:42:48;;;;;;;7.82;2.72;;;13.60;83.00;;;;;;5010653;28;20513;-75
2022/06/28 02:45:13;;;;;;;8.05;2.72;;;13.50;83.10;;;;;;5018306;28;20046;-76
2022/06/28 02:47:39;;;;;;;8.38;2.92;;;13.50;83.20;;;;;;5012433;28;20488;-76
2022/06/28 02:50:06;;;;;;;8.50;3.38;;;13.50;83.40;;;;;;5017563;28;20061;-75
2022/06/28 02:52:32;;;;;;;8.75;2.92;;;13.50;83.50;;;;;;5013427;28;20038;-75
2022/06/28 02:54:57;;;;;;;9.48;3.28;;;13.50;83.50;;;;;;5010455;28;20270;-76
2022/06/28 02:57:23;;;;;;;7.63;2.70;;;13.50;83.80;;;;;;5017421;28;20029;-75
2022/06/28 02:59:49;;;;;;;8.57;3.45;;;13.40;83.60;;;;;;5015234;28;20121;-75
2022/06/28 03:02:14;;;;;;;9.52;3.22;;;13.40;83.70;;;;;;5020723;28;20477;-76
2022/06/28 03:04:40;;;;;;;10.57;2.88;;;13.40;83.80;;;;;;5018021;28;20037;-75
2022/06/28 03:07:05;;;;;;;9.75;3.80;;;13.40;83.90;;;;;;5017488;28;20042;-75
2022/06/28 03:09:31;;;;;;;10.35;3.17;;;13.30;84.10;;;;;;5019065;28;20048;-75
2022/06/28 03:11:57;;;;;;;9.15;3.03;;;13.40;84.20;;;;;;5013614;28;20029;-76
2022/06/28 03:14:22;;;;;;;7.53;3.22;;;13.40;84.20;;;;;;5010527;28;20042;-75
2022/06/28 03:16:48;;;;;;;11.80;3.55;;;13.40;84.20;;;;;;5014315;28;20503;-76
2022/06/28 03:19:14;;;;;;;10.93;3.35;;;13.40;84.20;;;;;;5016545;28;20465;-76
2022/06/28 03:21:39;;;;;;;7.65;3.22;;;13.40;84.20;;;;;;5016152;28;20046;-76
2022/06/28 03:24:06;;;;;;;9.32;3.45;;;13.40;84.20;;;;;;5018143;28;20364;-75
2022/06/28 03:26:31;;;;;;;9.00;3.53;;;13.30;84.20;;;;;;5016519;28;20044;-76
2022/06/28 03:28:57;;;;;;;8.57;3.50;;;13.40;84.40;;;;;;5016961;28;20041;-75
2022/06/28 03:31:23;;;;;;;9.38;2.92;;;13.30;84.30;;;;;;5015729;28;20038;-76
2022/06/28 03:33:48;;;;;;;9.45;3.42;;;13.30;84.30;;;;;;5018929;28;20413;-76
2022/06/28 03:36:14;;;;;;;10.00;3.00;;;13.30;84.30;;;;;;5014831;28;20049;-76
2022/06/28 03:38:40;;;;;;;6.95;2.80;;;13.30;84.40;;;;;;5013866;28;20033;-75
2022/06/28 03:41:06;;;;;;;7.38;3.40;;;13.20;84.40;;;;;;5015884;28;20056;-75
2022/06/28 03:43:31;;;;;;;9.18;3.05;;;13.20;84.40;;;;;;5015723;28;20117;-75
2022/06/28 03:45:57;;;;;;;7.93;3.15;;;13.30;84.40;;;;;;5017879;28;20033;-76
2022/06/28 03:48:23;;;;;;;8.77;3.50;;;13.30;84.40;;;;;;5013844;28;20045;-75
2022/06/28 03:50:48;;;;;;;10.20;3.40;;;13.20;84.40;;;;;;5015860;28;20050;-76
2022/06/28 03:53:14;;;;;;;9.73;3.15;;;13.30;84.50;;;;;;5023821;28;20037;-77
2022/06/28 03:55:40;;;;;;;10.23;4.00;;;13.30;84.50;;;;;;5022813;28;20570;-76
2022/06/28 03:58:05;;;;;;;10.07;3.42;;;13.40;84.30;;;;;;5019440;28;20509;-75
2022/06/28 04:00:31;;;;;;;8.13;3.25;;;13.30;84.20;;;;;;5015065;28;20046;-76
2022/06/28 04:03:00;;;;;;;12.20;3.67;;;13.30;84.20;;;;;;5020232;28;20436;-75
2022/06/28 04:05:27;;;;;;;9.70;3.35;;;13.40;84.20;;;;;;5017384;28;20033;-77
2022/06/28 04:07:53;;;;;;;10.45;4.30;;;13.50;83.90;;;;;;5017059;28;20045;-75
2022/06/28 04:10:19;;;;;;;9.45;3.22;;;13.50;83.90;;;;;;5019440;28;20048;-76
2022/06/28 04:12:45;;;;;;;10.77;3.47;;;13.50;83.70;;;;;;5015498;28;20046;-75
2022/06/28 04:15:10;;;;;;;9.18;3.05;;;13.50;83.70;;;;;;5018559;28;20694;-75
2022/06/28 04:17:36;;;;;;;8.80;3.10;;;13.60;83.50;;;;;;5014539;28;20037;-75
2022/06/28 04:20:02;;;;;;;7.25;2.60;;;13.50;83.50;;;;;;5018857;28;20435;-75
2022/06/28 04:22:28;;;;;;;9.52;3.22;;;13.60;83.50;;;;;;5020080;28;20080;-75
2022/06/28 04:24:54;;;;;;;8.90;3.28;;;13.60;83.50;;;;;;5018602;28;20458;-76
2022/06/28 04:27:19;;;;;;;11.30;3.40;;;13.60;83.30;;;;;;5009853;28;20029;-75
2022/06/28 04:29:45;;;;;;;9.63;3.22;;;13.60;83.20;;;;;;5018549;28;20480;-75
2022/06/28 04:32:11;;;;;;;16.30;4.20;;;13.70;83.20;;;;;;5011834;28;20087;-75
2022/06/28 04:34:36;;;;;;;13.27;3.60;;;13.70;83.00;;;;;;5016975;28;20125;-75
2022/06/28 04:37:02;;;;;;;11.75;3.75;;;13.70;82.90;;;;;;5017778;28;20289;-75
2022/06/28 04:39:28;;;;;;;14.10;3.75;;;13.80;83.20;;;;;;5020765;28;20149;-75
2022/06/28 04:41:54;;;;;;;14.13;3.67;;;13.80;83.20;;;;;;5015046;28;20072;-75
2022/06/28 04:44:19;;;;;;;11.48;3.80;;;13.90;83.10;;;;;;5018721;28;20071;-75
2022/06/28 04:46:45;;;;;;;8.75;3.20;;;13.90;83.10;;;;;;5022064;28;20068;-75
2022/06/28 04:49:11;;;;;;;10.52;3.00;;;14.00;83.00;;;;;;5016380;28;20118;-75
2022/06/28 04:51:36;;;;;;;10.38;3.75;;;14.10;82.90;;;;;;5016625;28;20041;-75
2022/06/28 04:54:02;;;;;;;9.85;3.38;;;14.10;82.90;;;;;;5015623;28;20034;-75
2022/06/28 04:56:28;;;;;;;11.65;3.30;;;14.20;82.60;;;;;;5011221;28;20483;-75
2022/06/28 04:58:54;;;;;;;10.48;3.25;;;14.30;82.50;;;;;;5019381;28;20040;-75
2022/06/28 05:01:19;;;;;;;14.30;3.30;;;14.40;82.30;;;;;;5016502;28;20053;-75
2022/06/28 05:03:45;;;;;;;13.07;4.07;;;14.60;82.10;;;;;;5013047;28;20439;-75
2022/06/28 05:06:11;;;;;;;14.48;3.25;;;14.70;81.50;;;;;;5015768;28;20057;-74
2022/06/28 05:08:37;;;;;;;12.02;3.78;;;14.90;81.30;;;;;;5015602;28;20065;-75
2022/06/28 05:11:02;;;;;;;11.40;3.28;;;15.40;80.50;;;;;;5011110;28;20046;-75
2022/06/28 05:13:29;;;;;;;16.30;3.42;;;16.40;77.50;;;;;;5011664;28;20037;-75
2022/06/28 05:15:54;;;;;;;11.98;3.17;;;17.10;74.90;;;;;;5012712;28;20135;-75
2022/06/28 05:18:20;;;;;;;10.45;2.65;;;17.30;72.70;;;;;;5010121;28;20425;-75
2022/06/28 05:20:46;;;;;;;9.63;2.97;;;18.30;70.90;;;;;;5013823;28;20705;-77
2022/06/28 05:23:11;;;;;;;10.85;2.75;;;19.10;65.90;;;;;;5012103;28;20037;-75
2022/06/28 05:25:37;;;;;;;14.50;3.35;;;19.60;64.40;;;;;;5017212;28;20040;-75
2022/06/28 05:28:03;;;;;;;11.93;3.10;;;19.70;63.50;;;;;;5011696;28;20081;-76
2022/06/28 05:30:29;;;;;;;13.98;3.00;;;19.20;64.70;;;;;;5008405;28;20041;-76
2022/06/28 05:32:54;;;;;;;9.43;2.85;;;18.70;65.50;;;;;;5012335;28;20037;-76
2022/06/28 05:35:20;;;;;;;10.70;3.22;;;18.50;67.20;;;;;;5009493;28;20038;-76
2022/06/28 05:37:46;;;;;;;10.20;2.92;;;18.40;67.50;;;;;;5010740;28;20037;-76
2022/06/28 05:40:12;;;;;;;18.27;4.28;;;18.70;68.50;;;;;;5014630;28;20484;-74
2022/06/28 05:42:37;;;;;;;9.32;2.78;;;19.50;65.20;;;;;;5014662;28;20044;-75
2022/06/28 05:45:03;;;;;;;14.25;3.60;;;19.40;64.80;;;;;;5014922;28;20065;-75
2022/06/28 05:47:30;;;;;;;9.75;3.35;;;19.10;65.00;;;;;;5011705;28;20033;-74
2022/06/28 05:49:56;;;;;;;13.52;3.13;;;18.80;66.10;;;;;;5013144;28;20041;-75
2022/06/28 05:52:21;;;;;;;15.00;3.63;;;18.60;67.50;;;;;;5007988;28;20079;-75
2022/06/28 05:54:47;;;;;;;15.32;3.83;;;18.50;67.50;;;;;;5010897;28;20474;-75
2022/06/28 05:57:13;;;;;;;12.25;3.40;;;19.00;66.20;;;;;;5013289;28;20465;-76
2022/06/28 05:59:38;;;;;;;14.10;3.65;;;18.90;66.10;;;;;;5021083;28;20485;-74
2022/06/28 06:02:04;;;;;;;14.48;3.15;;;18.60;66.70;;;;;;5020030;28;20096;-77
2022/06/28 06:04:30;;;;;;;11.82;3.35;;;18.40;67.40;;;;;;5012764;28;20049;-76
2022/06/28 06:06:55;;;;;;;9.10;3.17;;;18.10;68.60;;;;;;5016816;28;20030;-75
2022/06/28 06:09:21;;;;;;;13.45;4.07;;;18.10;68.90;;;;;;5009593;28;20068;-75
2022/06/28 06:11:50;;;;;;;11.77;3.47;;;18.00;69.10;;;;;;5011695;28;20275;-76
2022/06/28 06:14:16;;;;;;;14.88;3.83;;;17.80;69.30;;;;;;5007909;28;20088;-76
2022/06/28 06:16:43;;;;;;;13.30;3.35;;;17.60;69.70;;;;;;5013822;28;20037;-75
2022/06/28 06:19:08;;;;;;;13.02;4.07;;;17.60;70.80;;;;;;5012215;28;20117;-75
2022/06/28 06:21:34;;;;;;;13.20;4.00;;;17.60;70.60;;;;;;5017955;28;20412;-75
2022/06/28 06:24:00;;;;;;;15.13;4.07;;;17.60;70.20;;;;;;5018516;28;20090;-75
2022/06/28 06:26:25;;;;;;;15.50;3.25;;;17.60;70.30;;;;;;5020960;28;20044;-77
2022/06/28 06:28:51;;;;;;;10.93;3.72;;;17.50;70.50;;;;;;5009722;28;20080;-75
2022/06/28 06:31:17;;;;;;;10.00;3.45;;;17.50;70.60;;;;;;5012199;28;20512;-75
2022/06/28 06:33:43;;;;;;;12.45;3.63;;;17.40;70.60;;;;;;5016770;28;20074;-77
2022/06/28 06:36:08;;;;;;;13.55;3.42;;;17.30;70.80;;;;;;5011323;28;20042;-73
2022/06/28 06:38:34;;;;;;;11.82;3.20;;;17.40;70.00;;;;;;5021714;28;20033;-75
2022/06/28 06:41:00;;;;;;;12.13;3.30;;;17.50;70.40;;;;;;5018694;28;20053;-75
2022/06/28 06:43:29;;;;;;;12.90;3.65;;;17.60;70.40;;;;;;5009462;28;20535;-77
2022/06/28 06:45:55;;;;;;;19.77;3.95;;;17.70;69.30;;;;;;5012932;28;20038;-76
2022/06/28 06:48:22;;;;;;;15.75;3.38;;;17.90;69.40;;;;;;5012126;28;20085;-75
2022/06/28 06:50:48;;;;;;;17.75;3.92;;;18.00;69.20;;;;;;5014539;28;20136;-75
2022/06/28 06:53:14;;;;;;;11.55;3.25;;;18.10;68.70;;;;;;5014850;28;20053;-74
2022/06/28 06:55:41;;;;;;;13.05;3.60;;;18.10;67.60;;;;;;5016771;28;20535;-75
2022/06/28 06:58:07;;;;;;;12.50;3.70;;;18.40;67.00;;;;;;5011693;28;20037;-74
2022/06/28 07:00:34;;;;;;;13.43;3.50;;;18.70;65.70;;;;;;5013763;28;20053;-75
2022/06/28 07:03:02;;;;;;;10.68;3.22;;;18.80;64.40;;;;;;5013655;28;20034;-74
2022/06/28 07:05:28;;;;;;;9.13;3.70;;;18.80;64.80;;;;;;5015868;28;20033;-74
2022/06/28 07:07:53;;;;;;;12.40;3.25;;;18.80;63.20;;;;;;5012043;28;20048;-76
2022/06/28 07:10:19;;;;;;;18.08;3.83;;;18.80;62.80;;;;;;5013448;28;20041;-74
2022/06/28 07:12:45;;;;;;;12.70;2.70;;;19.00;62.80;;;;;;5013412;28;20490;-74
2022/06/28 07:15:10;;;;;;;11.93;3.00;;;19.00;63.40;;;;;;5013877;28;20079;-74
2022/06/28 07:17:36;;;;;;;12.50;2.85;;;19.10;61.80;;;;;;5010294;28;20474;-76
2022/06/28 07:20:02;;;;;;;11.90;3.20;;;19.30;62.20;;;;;;5012114;28;20042;-74
2022/06/28 07:22:28;;;;;;;11.55;2.78;;;19.50;60.60;;;;;;5010157;28;20109;-75
2022/06/28 07:24:56;;;;;;;11.05;2.83;;;19.70;62.20;;;;;;5012730;28;20038;-77
2022/06/28 07:27:22;;;;;;;10.13;2.90;;;19.90;59.50;;;;;;5013009;28;20048;-76
2022/06/28 07:29:48;;;;;;;10.73;2.25;;;19.80;58.90;;;;;;5012941;28;20037;-75
2022/06/28 07:32:14;;;;;;;8.57;2.53;;;19.90;57.60;;;;;;5013656;28;20037;-76
2022/06/28 07:34:40;;;;;;;9.10;2.33;;;20.10;58.00;;;;;;5009313;28;20034;-75
2022/06/28 07:37:06;;;;;;;10.75;3.17;;;20.10;55.60;;;;;;5006791;28;20030;-75
2022/06/28 07:39:32;;;;;;;12.90;2.88;;;20.10;56.90;;;;;;5010432;28;20045;-74
2022/06/28 07:41:58;;;;;;;7.82;2.03;;;20.20;57.10;;;;;;5011483;28;20441;-74
2022/06/28 07:44:24;;;;;;;9.65;2.10;;;20.50;56.00;;;;;;5021059;28;20200;-75
2022/06/28 07:46:50;;;;;;;7.47;1.85;;;20.20;55.10;;;;;;5026357;28;20523;-76
2022/06/28 07:49:15;;;;;;;8.02;2.25;;;20.40;55.90;;;;;;5026523;28;20044;-73
2022/06/28 07:54:25;;;;;;;7.18;1.60;;;20.60;52.40;;;;;;5019578;28;20041;-73
2022/06/28 07:56:51;;;;;;;6.13;1.80;;;20.80;50.90;;;;;;5009444;28;20042;-75
2022/06/28 07:59:17;;;;;;;6.55;1.38;;;20.80;49.10;;;;;;5014191;28;20037;-74
2022/06/28 08:01:43;;;;;;;6.25;1.45;;;21.00;46.90;;;;;;5016754;28;20409;-74
2022/06/28 08:04:09;;;;;;;8.43;1.67;;;21.20;48.60;;;;;;5018885;28;20061;-74
2022/06/28 08:06:35;;;;;;;7.20;1.58;;;21.20;46.90;;;;;;5013371;28;21284;-74
2022/06/28 08:09:01;;;;;;;10.05;1.42;;;21.20;47.50;;;;;;5016280;28;20136;-74
2022/06/28 08:11:27;;;;;;;6.72;1.20;;;21.30;47.80;;;;;;5017915;28;20042;-74
2022/06/28 08:13:54;;;;;;;8.02;1.50;;;21.40;47.00;;;;;;5018616;28;20544;-76
2022/06/28 08:16:23;;;;;;;6.50;1.42;;;21.60;45.60;;;;;;5011657;28;21081;-74
2022/06/28 08:18:48;;;;;;;5.97;1.17;;;21.60;45.10;;;;;;5017557;28;20049;-76
2022/06/28 08:21:14;;;;;;;5.45;1.48;;;21.50;45.90;;;;;;5018234;28;20068;-75
2022/06/28 08:23:40;;;;;;;6.15;1.50;;;21.70;46.60;;;;;;5018997;28;20037;-73
2022/06/28 08:26:06;;;;;;;6.32;1.63;;;22.00;47.20;;;;;;5015499;28;20045;-74
2022/06/28 08:28:31;;;;;;;6.82;1.55;;;22.20;46.80;;;;;;5014727;28;20073;-74
2022/06/28 08:30:58;;;;;;;6.50;2.05;;;22.20;46.60;;;;;;5012773;28;20068;-75
2022/06/28 08:33:23;;;;;;;8.38;1.60;;;22.10;44.60;;;;;;5010902;28;20141;-74
2022/06/28 08:35:49;;;;;;;5.60;1.50;;;22.10;46.90;;;;;;5013076;28;20046;-74
2022/06/28 08:38:14;;;;;;;5.68;1.58;;;22.10;45.10;;;;;;5014011;28;20520;-75
2022/06/28 08:40:40;;;;;;;6.40;1.42;;;22.20;45.10;;;;;;5014437;28;20056;-75
2022/06/28 08:43:07;;;;;;;2.75;1.05;;;22.20;45.60;;;;;;5012268;28;20041;-75
2022/06/28 08:45:33;;;;;;;5.90;1.20;;;22.30;46.20;;;;;;5015695;28;20060;-74
2022/06/28 08:48:26;;;;;;;6.53;1.40;;;22.50;44.30;;;;;;5011653;28;20041;-75
2022/06/28 08:50:53;;;;;;;4.93;1.00;;;22.60;45.10;;;;;;5017463;28;20041;-74
2022/06/28 08:53:21;;;;;;;7.55;1.48;;;22.70;44.80;;;;;;5012062;28;20246;-73
2022/06/28 08:55:49;;;;;;;7.40;1.40;;;22.80;44.90;;;;;;5014331;28;20042;-74
2022/06/28 08:58:15;;;;;;;7.75;1.50;;;22.90;46.10;;;;;;5012570;28;20108;-74
2022/06/28 09:00:41;;;;;;;7.03;1.70;;;22.80;45.20;;;;;;5015283;28;20053;-73
2022/06/28 09:03:07;;;;;;;5.50;1.20;;;22.60;45.00;;;;;;5018981;28;20104;-73
2022/06/28 09:05:33;;;;;;;4.63;1.20;;;22.50;45.30;;;;;;5021688;28;20083;-76
2022/06/28 09:07:59;;;;;;;4.80;1.23;;;22.40;46.80;;;;;;5016660;28;20041;-75
2022/06/28 09:10:26;;;;;;;5.15;1.27;;;22.60;46.50;;;;;;5014650;28;20073;-74
2022/06/28 09:13:05;;;;;;;6.40;1.63;;;22.60;46.00;;;;;;5013304;28;20069;-74
2022/06/28 09:15:49;;;;;;;5.35;1.52;;;22.70;47.20;;;;;;5012794;28;20049;-73
2022/06/28 09:18:15;;;;;;;6.22;1.48;;;22.80;47.00;;;;;;5010118;28;20038;-78
2022/06/28 09:20:41;;;;;;;5.32;1.20;;;22.90;48.20;;;;;;5014562;28;20423;-75
2022/06/28 09:23:28;;;;;;;6.55;1.58;;;23.10;45.80;;;;;;5007323;28;20033;-77
2022/06/28 09:25:57;;;;;;;5.03;1.50;;;23.60;45.90;;;;;;5007842;28;20127;-77
2022/06/28 09:28:27;;;;;;;7.10;2.22;;;23.70;45.10;;;;;;5010053;28;20098;-75
2022/06/28 09:31:13;;;;;;;6.80;1.80;;;23.70;45.00;;;;;;5012980;28;20400;-74
2022/06/28 09:33:39;;;;;;;7.60;1.95;;;23.70;45.70;;;;;;5014632;28;20091;-76
2022/06/28 09:36:05;;;;;;;8.48;1.70;;;23.90;46.20;;;;;;5019425;28;20029;-76
2022/06/28 09:38:35;;;;;;;6.00;1.52;;;24.10;45.50;;;;;;5000819;28;20033;-75
2022/06/28 09:41:00;;;;;;;6.50;1.60;;;24.10;45.50;;;;;;5005521;28;20107;-77
2022/06/28 09:43:33;;;;;;;6.78;1.60;;;24.10;43.90;;;;;;5015892;28;20033;-76
2022/06/28 09:46:02;;;;;;;5.80;1.45;;;24.10;44.10;;;;;;5029841;28;20053;-78
2022/06/28 09:48:35;;;;;;;7.38;1.50;;;24.30;45.70;;;;;;5024430;28;20030;-78
2022/06/28 09:51:01;;;;;;;5.90;1.35;;;24.40;46.10;;;;;;5016455;28;20033;-75
2022/06/28 09:53:31;;;;;;;6.53;1.42;;;24.30;44.90;;;;;;5009591;28;20067;-77
2022/06/28 09:56:05;;;;;;;7.03;1.63;;;24.00;45.10;;;;;;5003122;28;20025;-75
2022/06/28 09:58:30;;;;;;;;;;;23.90;45.90;;;;;;5012189;28;20026;-75
2022/06/28 10:00:56;;;;;;;6.10;1.63;;;24.10;45.00;;;;;;5013813;28;19928;-76
2022/06/28 10:03:22;;;;;;;3.90;1.27;;;24.30;45.40;;;;;;5013686;28;20538;-75
2022/06/28 10:05:48;;;;;;;7.47;1.55;;;24.40;44.30;;;;;;5014963;28;20037;-76
2022/06/28 10:08:14;;;;;;;6.53;1.38;;;24.20;44.60;;;;;;5023216;28;20021;-76
2022/06/28 10:10:41;;;;;;;6.93;1.52;;;24.20;44.50;;;;;;5022493;28;20466;-75
2022/06/28 10:16:04;;;;;;;4.25;1.48;;;24.20;46.40;;;;;;5010771;28;20133;-77
2022/06/28 10:18:31;;;;;;;5.20;1.48;;;24.60;45.80;;;;;;5018350;28;20049;-76
2022/06/28 10:20:57;;;;;;;6.82;1.75;;;24.90;44.10;;;;;;5007274;28;20038;-75
2022/06/28 10:23:33;;;;;;;7.65;1.40;;;24.80;44.40;;;;;;5013040;28;20462;-75
2022/06/28 10:26:18;;;;;;;7.82;1.75;;;24.80;44.40;;;;;;5011612;28;20026;-76
2022/06/28 10:29:03;;;;;;;5.50;1.50;;;24.80;45.40;;;;;;5014969;28;20033;-77
2022/06/28 10:31:32;;;;;;;5.60;1.88;;;25.10;44.60;;;;;;5011557;28;20044;-74
2022/06/28 10:34:08;;;;;;;5.43;1.40;;;25.40;43.80;;;;;;5018465;28;20125;-77
2022/06/28 10:36:54;;;;;;;8.02;2.22;;;25.20;43.20;;;;;;5019867;28;20026;-76
2022/06/28 10:39:26;;;;;;;7.00;1.60;;;25.10;44.60;;;;;;5008983;28;20048;-76
2022/06/28 10:41:58;;;;;;;5.22;1.52;;;25.10;44.50;;;;;;5009173;28;20115;-75
2022/06/28 10:44:42;;;;;;;5.55;1.63;;;25.20;45.10;;;;;;5009868;28;20057;-75
2022/06/28 10:47:08;;;;;;;5.78;1.48;;;25.10;44.30;;;;;;5015092;28;20084;-77
2022/06/28 10:49:45;;;;;;;5.72;1.40;;;25.00;44.30;;;;;;5013782;28;20866;-75
2022/06/28 10:52:14;;;;;;;8.63;1.80;;;25.30;46.20;;;;;;5010139;28;20548;-75
2022/06/28 10:55:03;;;;;;;6.20;1.80;;;25.30;44.60;;;;;;5014217;28;20056;-76
2022/06/28 10:57:40;;;;;;;6.72;1.77;;;25.70;44.00;;;;;;5008409;28;20088;-77
2022/06/28 11:00:09;;;;;;;7.82;1.80;;;25.90;43.90;;;;;;5010421;28;20046;-77
2022/06/28 11:02:50;;;;;;;6.53;1.55;;;26.30;43.30;;;;;;5018443;28;20480;-78
2022/06/28 11:05:20;;;;;;;7.43;1.67;;;26.40;44.90;;;;;;5009726;28;20123;-77
2022/06/28 11:08:02;;;;;;;6.97;1.85;;;26.70;42.30;;;;;;5018830;28;20136;-78
2022/06/28 11:10:29;;;;;;;6.85;1.77;;;26.60;43.30;;;;;;5015758;28;20087;-78
2022/06/28 11:13:21;;;;;;;5.85;1.50;;;26.60;42.30;;;;;;5011472;28;20461;-79
2022/06/28 11:15:46;;;;;;;9.00;1.80;;;26.80;41.80;;;;;;5014006;28;20072;-78
2022/06/28 11:18:17;;;;;;;8.60;1.85;;;27.00;42.40;;;;;;5013742;28;20044;-78
2022/06/28 11:20:43;;;;;;;7.53;1.92;;;27.00;42.80;;;;;;5008018;28;20123;-77
2022/06/28 11:23:20;;;;;;;8.90;1.60;;;27.00;42.50;;;;;;5015508;28;20567;-76
2022/06/28 11:28:30;;;;;;;;;;;27.00;42.90;;;;;;5018915;28;20040;-78
2022/06/28 11:30:56;;;;;;;7.88;1.70;;;27.00;43.50;;;;;;5015730;28;19917;-77
2022/06/28 11:33:31;;;;;;;7.35;1.70;;;27.20;41.80;;;;;;5021033;28;20137;-78
2022/06/28 11:36:00;;;;;;;7.70;1.80;;;27.20;42.80;;;;;;5014998;28;20033;-78
2022/06/28 11:38:25;;;;;;;7.00;1.85;;;27.30;41.10;;;;;;5018661;28;20045;-78
2022/06/28 11:40:51;;;;;;;6.03;1.80;;;27.00;42.10;;;;;;5034316;28;20041;-79
2022/06/28 11:43:19;;;;;;;4.70;1.30;;;26.70;41.80;;;;;;5027330;28;20140;-80
2022/06/28 11:45:49;;;;;;;6.07;1.92;;;25.80;43.00;;;;;;5026463;28;20401;-77
2022/06/28 11:48:16;;;;;;;8.05;1.67;;;26.10;43.80;;;;;;5012284;28;20041;-78
2022/06/28 11:50:56;;;;;;;6.13;1.73;;;26.30;42.90;;;;;;5014378;28;20390;-78
2022/06/28 11:53:23;;;;;;;6.20;1.90;;;26.20;42.60;;;;;;5020587;28;20056;-78
2022/06/28 11:55:56;;;;;;;5.45;1.85;;;26.20;42.90;;;;;;5021293;28;20042;-79
2022/06/28 11:58:37;;;;;;;6.13;1.77;;;26.50;42.10;;;;;;5009286;28;20041;-80
2022/06/28 12:01:08;;;;;;;8.63;1.77;;;26.80;42.90;;;;;;5010652;28;20061;-79
2022/06/28 12:03:53;;;;;;;6.65;1.45;;;27.00;41.40;;;;;;5009842;28;20125;-79
2022/06/28 12:06:27;;;;;;;5.68;1.50;;;27.10;42.70;;;;;;5016136;28;20049;-80
2022/06/28 12:08:58;;;;;;;8.20;1.90;;;26.90;41.50;;;;;;5021275;28;20557;-80
2022/06/28 12:11:30;;;;;;;7.07;1.90;;;26.50;41.70;;;;;;5014959;28;20405;-79
2022/06/28 12:13:56;;;;;;;5.78;1.73;;;26.60;42.30;;;;;;5017842;28;20167;-80
2022/06/28 12:16:22;;;;;;;8.20;1.60;;;27.10;42.40;;;;;;5019428;28;20192;-80
2022/06/28 12:18:54;;;;;;;7.90;1.73;;;27.30;42.20;;;;;;5019098;28;20544;-80
2022/06/28 12:21:19;;;;;;;6.82;1.85;;;27.60;40.70;;;;;;5020711;28;20090;-79
2022/06/28 12:23:53;;;;;;;4.10;1.35;;;27.80;39.60;;;;;;5020183;28;20045;-79
2022/06/28 12:26:20;;;;;;;6.20;1.50;;;27.90;38.70;;;;;;5015209;28;20029;-79
2022/06/28 12:28:46;;;;;;;6.95;1.88;;;27.80;38.60;;;;;;5014112;28;20470;-78
2022/06/28 12:31:12;;;;;;;5.25;1.65;;;27.90;38.80;;;;;;5015094;28;20500;-78
2022/06/28 12:33:38;;;;;;;6.60;1.50;;;28.00;38.90;;;;;;5022018;28;20025;-81
2022/06/28 12:36:04;;;;;;;8.80;1.83;;;27.80;38.70;;;;;;5018697;28;20545;-80
2022/06/28 12:38:30;;;;;;;6.95;1.80;;;27.70;38.50;;;;;;5020387;28;20029;-80
2022/06/28 12:40:56;;;;;;;5.65;1.40;;;27.70;39.40;;;;;;5017721;28;20562;-79
2022/06/28 12:43:22;;;;;;;5.15;1.27;;;27.80;38.90;;;;;;5021558;28;20068;-79
2022/06/28 12:45:48;;;;;;;6.65;1.55;;;28.10;39.30;;;;;;5018004;28;20037;-79
2022/06/28 12:48:14;;;;;;;7.80;1.50;;;28.20;40.20;;;;;;5010309;28;20470;-79
2022/06/28 12:50:40;;;;;;;9.50;1.85;;;28.50;37.50;;;;;;5016421;28;20052;-79
2022/06/28 12:53:06;;;;;;;5.38;1.52;;;28.00;37.70;;;;;;5017445;28;20041;-79
2022/06/28 12:55:32;;;;;;;6.88;1.67;;;28.00;38.00;;;;;;5015630;28;20025;-79
2022/06/28 12:57:58;;;;;;;5.68;1.50;;;28.10;38.30;;;;;;5015225;28;20033;-79
2022/06/28 13:00:24;;;;;;;6.32;1.80;;;27.80;38.70;;;;;;5010805;28;20418;-78
2022/06/28 13:02:50;;;;;;;7.85;1.90;;;27.50;38.90;;;;;;5012115;28;20045;-78